YBRJ weather

Burren Junction Airport
New South Wales, Australia

Public forecast

Using degrees Celsius for public forecast. Weather courtesy of forecast.io.

METAR (pilot weather report)

Closest report is Narrabri Airport, 45.2 nm (83.8 km) ESE. Retrieved 2019/06/25 17:00 UTC (54 minutes ago):

YNBR 251700Z AUTO 15011KT 9999 // NCD 10/05 Q1029

TAF (pilot weather forecast)

Closest forecast is Tamworth Airport, 111.5 nm (206.6 km) ESE. Retrieved 2019/06/25 12:36 UTC (5 hours ago):

TAF TAF YSTW 251100Z 2512/2606 14006KT 9999 FEW010 FM260100 12014KT 9999 SCT040